Accueil
METAR-TAF:

METAR-TAF

Aéroports :

La Roche-sur-Yon, France

Aérodrome de La Roche-sur-Yon - Les Ajoncs

latitude: 46-42N, longitude: 001-23W, altitude: 90 m

Observation

Le bulletin a été fait il y a 30 minutes, à 10:00 UTC
Vent 10 kt de nord/nord-est
Température 2°C
Humidité 80%
Pression 1017 hPa
Visibilité: 3900 m
brume

METAR: LFRI 221000Z AUTO 03010KT 3900 BR NSC 02/M01 Q1017 BECMG 9999 NSW

Heure: 11:30 (10:30 UTC)

Prévision

Le bulletin a été fait il y a 15 minutes, à 10:15 UTC
Prévision valable du 22 à 10 UTC au 23 à 06 UTC
Vent 10 kt de nord/nord-est
Visibilité: 4000 m
brume
Evoluant progressivement
du 22 à 10 UTC au 22 à 12 UTC
Visibilité: 7000 m

TAF: LFRI 221015Z 2210/2306 03010KT 4000 BR NSC BECMG 2210/2212 7000 NSW

Observations et prévisions météorologiques de plus de 4000 aéroports (messages METAR et TAF).

Les stations disponibles sont représentées par des disques jaunes et rouges sur la carte.

Passer la souris dessus pour voir le nom de la station.

Cliquer dessus pour voir les observations et prévisions météorologiques.

Pour changer de carte: cliquez sur les boutons verts avec une croix noire pour zoomer, sur le bouton vert avec un tiret pour effectuer un zoom arrière, ou sur les flèches vertes pour les cartes adjacentes.


METAR-TAF: